Time;durP1;ratioP1;P1;durP2;ratioP2;P2;SDS_P1;SDS_P2;PMS_P1;PMS_P2;Temp;Humidity;BMP_temperature;BMP_pressure;BME280_temperature;BME280_humidity;BME280_pressure;Samples;Min_cycle;Max_cycle;Signal;HPM_P1;HPM_P2
2021/11/24 00:02:03;;;;;;;3.58;2.50;;;9.50;99.90;;;;;;5122494;27;20065;-67
2021/11/24 00:04:29;;;;;;;6.05;3.13;;;9.50;99.90;;;;;;5102760;27;20564;-67
2021/11/24 00:06:54;;;;;;;6.07;2.35;;;9.50;99.90;;;;;;5098480;28;20031;-65
2021/11/24 00:09:20;;;;;;;4.55;2.88;;;9.50;99.90;;;;;;5113747;27;20056;-66
2021/11/24 00:11:46;;;;;;;5.10;2.88;;;9.50;99.90;;;;;;5129260;27;20059;-64
2021/11/24 00:14:12;;;;;;;5.55;2.97;;;9.40;99.90;;;;;;5094054;28;20036;-66
2021/11/24 00:16:37;;;;;;;4.22;2.80;;;9.40;99.90;;;;;;5095190;27;20054;-68
2021/11/24 00:19:03;;;;;;;4.93;3.63;;;9.40;99.90;;;;;;5127670;27;20015;-67
2021/11/24 00:21:28;;;;;;;5.10;3.28;;;9.40;99.90;;;;;;5069520;27;20067;-67
2021/11/24 00:23:54;;;;;;;4.22;2.95;;;9.40;99.90;;;;;;5100012;28;20027;-71
2021/11/24 00:26:20;;;;;;;5.57;3.30;;;9.40;99.90;;;;;;5104662;28;20116;-70
2021/11/24 00:28:45;;;;;;;5.50;3.22;;;9.40;99.90;;;;;;5128222;27;20429;-70
2021/11/24 00:31:11;;;;;;;5.72;4.15;;;9.40;99.90;;;;;;5120589;27;20035;-72
2021/11/24 00:33:37;;;;;;;5.45;2.97;;;9.50;99.90;;;;;;5092225;27;20020;-72
2021/11/24 00:36:03;;;;;;;4.90;2.85;;;9.50;99.90;;;;;;5110256;27;20071;-75
2021/11/24 00:38:28;;;;;;;5.95;3.85;;;9.50;99.90;;;;;;5101364;27;20473;-75
2021/11/24 00:40:55;;;;;;;6.45;3.83;;;9.40;99.90;;;;;;5106779;27;20032;-76
2021/11/24 00:43:21;;;;;;;4.97;3.30;;;9.40;99.90;;;;;;5103315;28;20016;-74
2021/11/24 00:45:48;;;;;;;7.43;4.43;;;9.40;99.90;;;;;;5100147;28;20055;-75
2021/11/24 00:48:13;;;;;;;6.82;4.13;;;9.40;99.90;;;;;;5104518;28;20505;-75
2021/11/24 00:50:40;;;;;;;6.50;4.13;;;9.40;99.90;;;;;;5083706;28;20036;-74
2021/11/24 00:53:06;;;;;;;6.90;3.92;;;9.40;99.90;;;;;;5119859;27;20019;-73
2021/11/24 00:55:31;;;;;;;7.95;3.90;;;9.40;99.90;;;;;;5092502;27;20126;-73
2021/11/24 00:57:57;;;;;;;7.38;4.47;;;9.40;99.90;;;;;;5119550;27;20473;-73
2021/11/24 01:00:23;;;;;;;6.75;3.50;;;9.40;99.90;;;;;;5084402;27;20039;-74
2021/11/24 01:02:49;;;;;;;7.50;4.78;;;9.30;99.90;;;;;;5105740;27;20393;-73
2021/11/24 01:05:15;;;;;;;7.13;4.63;;;9.40;99.90;;;;;;5127924;27;20030;-75
2021/11/24 01:07:40;;;;;;;6.30;4.40;;;9.40;99.90;;;;;;5092111;27;20042;-72
2021/11/24 01:10:07;;;;;;;5.95;4.00;;;9.40;99.90;;;;;;5120094;27;20026;-71
2021/11/24 01:12:34;;;;;;;5.95;4.40;;;9.40;99.90;;;;;;5081545;28;20176;-74
2021/11/24 01:15:00;;;;;;;6.72;4.20;;;9.40;99.90;;;;;;5080562;28;20031;-73
2021/11/24 01:17:25;;;;;;;8.18;4.30;;;9.30;99.90;;;;;;5103957;27;20047;-72
2021/11/24 01:19:51;;;;;;;6.80;4.07;;;9.30;99.90;;;;;;5116823;27;20030;-68
2021/11/24 01:22:16;;;;;;;5.55;4.20;;;9.30;99.90;;;;;;5064302;28;20478;-69
2021/11/24 01:24:42;;;;;;;7.63;4.32;;;9.30;99.90;;;;;;5112034;27;20023;-70
2021/11/24 01:27:08;;;;;;;5.40;4.05;;;9.30;99.90;;;;;;5117747;27;20112;-73
2021/11/24 01:29:34;;;;;;;8.63;4.38;;;9.30;99.90;;;;;;5084702;27;20031;-73
2021/11/24 01:31:59;;;;;;;6.63;4.30;;;9.40;99.90;;;;;;5108831;27;20041;-72
2021/11/24 01:34:25;;;;;;;8.25;4.30;;;9.40;99.90;;;;;;5121670;27;20651;-69
2021/11/24 01:36:51;;;;;;;5.75;3.75;;;9.40;99.90;;;;;;5094705;27;20043;-69
2021/11/24 01:39:17;;;;;;;9.10;4.38;;;9.40;99.90;;;;;;5095834;27;20062;-64
2021/11/24 01:41:43;;;;;;;6.18;4.00;;;9.40;99.90;;;;;;5110112;27;20481;-67
2021/11/24 01:44:23;;;;;;;5.78;4.30;;;9.40;99.90;;;;;;5097077;27;20093;-66
2021/11/24 01:47:00;;;;;;;7.00;3.83;;;9.40;99.90;;;;;;5097557;28;20015;-66
2021/11/24 01:49:26;;;;;;;7.45;4.40;;;9.40;99.90;;;;;;5104064;28;20024;-67
2021/11/24 01:51:52;;;;;;;4.85;3.90;;;9.40;99.90;;;;;;5095287;28;20015;-66
2021/11/24 01:54:19;;;;;;;4.32;3.53;;;9.40;99.90;;;;;;5128874;27;20062;-69
2021/11/24 01:56:45;;;;;;;7.53;4.03;;;9.40;99.90;;;;;;5125152;27;20531;-65
2021/11/24 01:59:13;;;;;;;8.02;4.97;;;9.40;99.90;;;;;;5103509;27;20027;-70
2021/11/24 02:01:41;;;;;;;8.70;4.95;;;9.30;99.90;;;;;;5100925;28;20023;-63
2021/11/24 02:04:07;;;;;;;7.25;5.03;;;9.30;99.90;;;;;;5098716;28;20066;-63
2021/11/24 02:06:33;;;;;;;5.82;3.88;;;9.20;99.90;;;;;;5117313;27;20094;-66
2021/11/24 02:08:58;;;;;;;6.70;4.38;;;9.20;99.90;;;;;;5097135;27;20044;-67
2021/11/24 02:11:24;;;;;;;7.97;4.32;;;9.10;99.90;;;;;;5100616;27;20066;-73
2021/11/24 02:13:49;;;;;;;9.45;5.60;;;9.10;99.90;;;;;;5098844;27;20027;-62
2021/11/24 02:16:15;;;;;;;4.70;4.05;;;9.10;99.90;;;;;;5099464;28;21942;-68
2021/11/24 02:18:41;;;;;;;4.97;3.53;;;9.00;99.90;;;;;;5094082;28;20049;-71
2021/11/24 02:21:06;;;;;;;6.07;3.72;;;8.90;99.90;;;;;;5089612;28;20038;-73
2021/11/24 02:23:32;;;;;;;5.65;3.80;;;9.00;99.90;;;;;;5094703;28;20020;-68
2021/11/24 02:25:57;;;;;;;6.13;3.65;;;9.10;99.90;;;;;;5113180;28;20621;-73
2021/11/24 02:28:23;;;;;;;6.90;3.67;;;9.10;99.90;;;;;;5120453;28;20054;-72
2021/11/24 02:30:50;;;;;;;4.15;3.42;;;9.10;99.90;;;;;;5099509;28;20472;-73
2021/11/24 02:33:16;;;;;;;5.15;3.65;;;9.20;99.90;;;;;;5095205;28;20027;-74
2021/11/24 02:35:46;;;;;;;5.57;3.20;;;9.20;99.90;;;;;;5099602;28;20038;-75
2021/11/24 02:38:20;;;;;;;3.88;3.25;;;9.20;99.90;;;;;;5098819;27;20030;-75
2021/11/24 02:40:46;;;;;;;9.60;3.38;;;9.30;99.90;;;;;;5096657;28;20030;-72
2021/11/24 02:43:12;;;;;;;6.15;3.13;;;9.30;99.90;;;;;;5121107;28;20027;-73
2021/11/24 02:45:37;;;;;;;5.78;3.15;;;9.30;99.90;;;;;;5095754;28;20426;-73
2021/11/24 02:48:04;;;;;;;3.70;2.72;;;9.30;99.90;;;;;;5105139;28;20118;-75
2021/11/24 02:50:30;;;;;;;5.53;3.55;;;9.30;99.90;;;;;;5099812;28;20027;-73
2021/11/24 02:52:59;;;;;;;5.28;3.53;;;9.30;99.90;;;;;;5101068;28;20102;-75
2021/11/24 02:55:25;;;;;;;5.28;3.50;;;9.30;99.90;;;;;;5097589;28;20035;-76
2021/11/24 02:57:52;;;;;;;7.93;3.40;;;9.30;99.90;;;;;;5100732;28;20489;-70
2021/11/24 03:00:25;;;;;;;5.40;3.55;;;9.30;99.90;;;;;;5100188;27;20020;-74
2021/11/24 03:02:50;;;;;;;8.68;3.85;;;9.30;99.90;;;;;;5091888;27;20042;-72
2021/11/24 03:05:19;;;;;;;4.70;3.60;;;9.30;99.90;;;;;;5098592;28;20023;-75
2021/11/24 03:07:45;;;;;;;5.63;3.28;;;9.30;99.90;;;;;;5092810;27;20034;-65
2021/11/24 03:10:11;;;;;;;5.28;3.42;;;9.30;99.90;;;;;;5090455;28;20023;-74
2021/11/24 03:12:37;;;;;;;4.72;3.00;;;9.20;99.90;;;;;;5098596;28;20115;-67
2021/11/24 03:15:04;;;;;;;4.00;3.28;;;9.30;99.90;;;;;;5101226;27;20062;-65
2021/11/24 03:17:30;;;;;;;5.07;3.13;;;9.20;99.90;;;;;;5097604;27;20052;-69
2021/11/24 03:19:57;;;;;;;4.35;3.20;;;9.20;99.90;;;;;;5116980;27;20867;-71
2021/11/24 03:22:26;;;;;;;4.28;3.03;;;9.10;99.90;;;;;;5091958;27;20027;-66
2021/11/24 03:24:56;;;;;;;5.10;3.28;;;9.10;99.90;;;;;;5103192;27;20107;-71
2021/11/24 03:27:27;;;;;;;6.13;3.53;;;9.10;99.90;;;;;;5095565;27;20063;-65
2021/11/24 03:29:53;;;;;;;4.22;3.22;;;9.10;99.90;;;;;;5096146;27;20477;-63
2021/11/24 03:32:19;;;;;;;3.88;3.30;;;9.10;99.90;;;;;;5102750;27;20544;-64
2021/11/24 03:34:45;;;;;;;5.00;3.40;;;9.20;99.90;;;;;;5115955;27;20451;-62
2021/11/24 03:37:11;;;;;;;8.38;3.70;;;9.20;99.90;;;;;;5100226;27;20130;-65
2021/11/24 03:39:37;;;;;;;7.30;3.80;;;9.20;99.90;;;;;;5092681;27;20035;-73
2021/11/24 03:42:03;;;;;;;6.15;3.50;;;9.10;99.90;;;;;;5100084;27;20031;-73
2021/11/24 03:44:28;;;;;;;5.07;3.17;;;9.10;99.90;;;;;;5115615;27;20015;-73
2021/11/24 03:46:54;;;;;;;6.28;3.47;;;9.00;99.90;;;;;;5097643;27;20027;-73
2021/11/24 03:49:21;;;;;;;5.90;3.80;;;9.00;99.90;;;;;;5099005;28;20516;-73
2021/11/24 03:51:47;;;;;;;6.43;3.70;;;9.10;99.90;;;;;;5127395;27;20854;-71
2021/11/24 03:54:13;;;;;;;6.22;3.42;;;9.10;99.90;;;;;;5114565;27;20071;-72
2021/11/24 03:56:38;;;;;;;5.05;3.67;;;9.00;99.90;;;;;;5115634;27;20031;-71
2021/11/24 03:59:04;;;;;;;4.82;3.15;;;9.00;99.90;;;;;;5095108;27;20065;-73
2021/11/24 04:01:30;;;;;;;13.40;4.10;;;9.00;99.90;;;;;;5086887;28;20027;-72
2021/11/24 04:03:55;;;;;;;5.95;3.55;;;9.10;99.90;;;;;;5110271;27;20031;-71
2021/11/24 04:06:21;;;;;;;5.85;3.25;;;9.10;99.90;;;;;;5092323;27;20361;-73
2021/11/24 04:08:47;;;;;;;6.88;3.13;;;9.00;99.90;;;;;;5088868;28;20028;-74
2021/11/24 04:11:12;;;;;;;10.70;3.13;;;9.00;99.90;;;;;;5089636;28;20081;-65
2021/11/24 04:13:38;;;;;;;5.15;2.83;;;9.10;99.90;;;;;;5078289;28;20031;-63
2021/11/24 04:16:04;;;;;;;5.90;2.97;;;9.10;99.90;;;;;;5096165;27;20027;-68
2021/11/24 04:18:29;;;;;;;4.28;3.28;;;9.20;99.90;;;;;;5098525;27;20143;-65
2021/11/24 04:20:56;;;;;;;4.07;3.22;;;9.20;99.90;;;;;;5081738;28;20016;-63
2021/11/24 04:23:22;;;;;;;8.38;3.53;;;9.30;99.90;;;;;;5099864;28;20088;-64
2021/11/24 04:25:48;;;;;;;6.80;3.17;;;9.30;99.90;;;;;;5085195;28;20031;-64
2021/11/24 04:28:13;;;;;;;8.10;3.90;;;9.30;99.90;;;;;;5122341;27;20123;-64
2021/11/24 04:30:39;;;;;;;5.68;3.85;;;9.30;99.90;;;;;;5107846;27;20020;-65
2021/11/24 04:33:05;;;;;;;5.32;3.45;;;9.30;99.90;;;;;;5094207;28;20114;-64
2021/11/24 04:35:30;;;;;;;5.03;3.65;;;9.30;99.90;;;;;;5082724;27;20031;-64
2021/11/24 04:37:56;;;;;;;7.18;3.83;;;9.30;99.90;;;;;;5102888;27;20380;-63
2021/11/24 04:40:22;;;;;;;6.88;4.32;;;9.20;99.90;;;;;;5118308;27;20024;-69
2021/11/24 04:42:49;;;;;;;7.93;4.00;;;9.20;99.90;;;;;;5092613;27;20042;-68
2021/11/24 04:45:16;;;;;;;6.72;4.38;;;9.20;99.90;;;;;;5107397;27;20019;-72
2021/11/24 04:47:42;;;;;;;7.57;4.82;;;9.20;99.90;;;;;;5122789;27;20129;-65
2021/11/24 04:50:08;;;;;;;6.22;4.15;;;9.10;99.90;;;;;;5097850;27;20027;-74
2021/11/24 04:52:35;;;;;;;7.60;4.47;;;9.10;99.90;;;;;;5103112;27;20027;-73
2021/11/24 04:55:00;;;;;;;4.03;3.13;;;9.00;99.90;;;;;;5119013;27;20505;-73
2021/11/24 04:57:26;;;;;;;7.35;4.18;;;9.00;99.90;;;;;;5116179;27;20043;-74
2021/11/24 04:59:51;;;;;;;7.07;4.40;;;8.90;99.90;;;;;;5105420;27;20031;-73
2021/11/24 05:02:17;;;;;;;6.88;4.10;;;8.90;99.90;;;;;;5098575;28;20036;-75
2021/11/24 05:04:44;;;;;;;5.25;3.70;;;8.90;99.90;;;;;;5100362;27;20020;-73
2021/11/24 05:07:10;;;;;;;6.40;4.47;;;9.00;99.90;;;;;;5097036;27;20024;-73
2021/11/24 05:09:35;;;;;;;6.60;3.85;;;9.10;99.90;;;;;;5096093;28;20462;-73
2021/11/24 05:12:03;;;;;;;9.02;4.38;;;9.10;99.90;;;;;;5093261;27;20492;-74
2021/11/24 05:14:33;;;;;;;6.13;4.65;;;9.10;99.90;;;;;;5109381;27;20391;-73
2021/11/24 05:17:01;;;;;;;7.28;4.75;;;9.10;99.90;;;;;;5093192;28;20030;-74
2021/11/24 05:19:29;;;;;;;5.63;4.38;;;9.00;99.90;;;;;;5098316;28;20065;-74
2021/11/24 05:21:55;;;;;;;5.20;4.32;;;9.10;99.90;;;;;;5088812;27;20019;-74
2021/11/24 05:24:22;;;;;;;9.15;4.82;;;9.10;99.90;;;;;;5093472;28;20031;-74
2021/11/24 05:26:48;;;;;;;7.53;5.07;;;9.00;99.90;;;;;;5113797;27;20044;-72
2021/11/24 05:29:14;;;;;;;9.70;5.50;;;9.10;99.90;;;;;;5107047;27;20027;-73
2021/11/24 05:31:40;;;;;;;5.53;4.85;;;9.00;99.90;;;;;;5100271;27;20031;-74
2021/11/24 05:34:06;;;;;;;10.05;5.35;;;9.10;99.90;;;;;;5078071;28;20023;-71
2021/11/24 05:36:34;;;;;;;7.30;4.93;;;9.00;99.90;;;;;;5096875;27;20085;-70
2021/11/24 05:38:59;;;;;;;9.40;5.47;;;8.90;99.90;;;;;;5092960;27;20034;-65
2021/11/24 05:41:25;;;;;;;10.68;6.57;;;8.90;99.90;;;;;;5085157;27;20015;-68
2021/11/24 05:43:53;;;;;;;9.40;5.28;;;8.90;99.90;;;;;;5106533;27;20083;-67
2021/11/24 05:46:40;;;;;;;11.82;5.60;;;8.90;99.90;;;;;;5107431;27;20019;-61
2021/11/24 05:49:05;;;;;;;8.70;5.55;;;8.90;99.90;;;;;;5090906;27;20026;-61
2021/11/24 05:51:31;;;;;;;7.72;6.03;;;8.80;99.90;;;;;;5084106;28;20023;-62
2021/11/24 05:53:56;;;;;;;8.57;5.78;;;8.80;99.90;;;;;;5129391;27;20034;-71
2021/11/24 05:56:22;;;;;;;15.35;5.80;;;8.80;99.90;;;;;;5099416;28;20027;-73
2021/11/24 05:58:48;;;;;;;7.65;5.18;;;8.80;99.90;;;;;;5115373;27;20031;-68
2021/11/24 06:01:13;;;;;;;7.13;5.72;;;8.80;99.90;;;;;;5086977;27;20422;-70
2021/11/24 06:03:39;;;;;;;7.05;6.25;;;8.80;99.90;;;;;;5098549;27;20106;-62
2021/11/24 06:06:04;;;;;;;10.65;7.05;;;8.80;99.90;;;;;;5110208;27;20030;-71
2021/11/24 06:08:30;;;;;;;9.23;5.85;;;8.80;99.90;;;;;;5118455;27;20118;-67
2021/11/24 06:10:56;;;;;;;7.25;6.22;;;8.80;99.90;;;;;;5097965;28;20031;-68
2021/11/24 06:13:21;;;;;;;8.50;5.95;;;8.70;99.90;;;;;;5092036;28;20533;-72
2021/11/24 06:15:47;;;;;;;9.63;5.90;;;8.70;99.90;;;;;;5098496;28;20114;-74
2021/11/24 06:18:13;;;;;;;6.80;5.43;;;8.70;99.90;;;;;;5107986;28;20032;-72
2021/11/24 06:20:39;;;;;;;7.45;5.70;;;8.70;99.90;;;;;;5092899;28;20038;-70
2021/11/24 06:23:06;;;;;;;11.27;6.75;;;8.70;99.90;;;;;;5083987;28;20044;-73
2021/11/24 06:25:32;;;;;;;10.38;7.05;;;8.70;99.90;;;;;;5104576;28;20027;-82
2021/11/24 06:27:58;;;;;;;15.50;7.60;;;8.70;99.90;;;;;;5096390;28;20052;-70
2021/11/24 06:30:24;;;;;;;8.63;6.53;;;8.70;99.90;;;;;;5104447;28;20027;-75
2021/11/24 06:32:49;;;;;;;9.73;6.90;;;8.70;99.90;;;;;;5096810;28;20501;-73
2021/11/24 06:35:15;;;;;;;9.88;6.82;;;8.70;99.90;;;;;;5101504;28;20042;-79
2021/11/24 06:37:41;;;;;;;11.82;6.57;;;8.70;99.90;;;;;;5101477;28;20035;-73
2021/11/24 06:40:08;;;;;;;9.43;6.43;;;8.60;99.90;;;;;;5081899;28;20481;-72
2021/11/24 06:42:34;;;;;;;7.45;6.53;;;8.70;99.90;;;;;;5092548;28;20043;-76
2021/11/24 06:44:59;;;;;;;12.00;7.30;;;8.70;99.90;;;;;;5124683;28;20071;-74
2021/11/24 06:47:25;;;;;;;12.27;6.40;;;8.70;99.90;;;;;;5077194;28;20050;-77
2021/11/24 06:49:50;;;;;;;13.68;6.95;;;8.70;99.90;;;;;;5081356;28;20102;-75
2021/11/24 06:52:16;;;;;;;13.65;7.10;;;8.60;99.90;;;;;;5081128;27;20110;-72
2021/11/24 06:54:42;;;;;;;13.13;7.05;;;8.60;99.90;;;;;;5108234;28;20122;-70
2021/11/24 06:57:07;;;;;;;8.65;6.40;;;8.60;99.90;;;;;;5121064;28;20042;-70
2021/11/24 06:59:33;;;;;;;9.23;5.65;;;8.60;99.90;;;;;;5102641;27;20122;-63
2021/11/24 07:01:59;;;;;;;9.60;6.00;;;8.60;99.90;;;;;;5127431;27;20059;-64
2021/11/24 07:04:24;;;;;;;10.75;6.75;;;8.60;99.90;;;;;;5103078;27;20050;-68
2021/11/24 07:06:50;;;;;;;9.63;6.63;;;8.70;99.90;;;;;;5110840;27;20028;-68
2021/11/24 07:09:16;;;;;;;10.65;7.10;;;8.70;99.90;;;;;;5111845;27;20022;-66
2021/11/24 07:11:41;;;;;;;18.08;7.60;;;8.70;99.90;;;;;;5129973;27;20059;-64
2021/11/24 07:14:10;;;;;;;8.93;7.22;;;8.70;99.90;;;;;;5107341;27;20034;-64
2021/11/24 07:16:37;;;;;;;11.73;7.32;;;8.70;99.90;;;;;;5082782;27;20032;-71
2021/11/24 07:19:03;;;;;;;10.93;7.28;;;8.70;99.90;;;;;;5085322;28;20481;-64
2021/11/24 07:21:29;;;;;;;14.50;9.13;;;8.70;99.90;;;;;;5094954;27;20052;-71
2021/11/24 07:23:54;;;;;;;13.80;8.35;;;8.70;99.90;;;;;;5092198;27;20035;-76
2021/11/24 07:26:20;;;;;;;11.82;8.15;;;8.70;99.90;;;;;;5104954;27;20043;-67
2021/11/24 07:28:46;;;;;;;12.55;8.55;;;8.60;99.90;;;;;;5088688;27;20405;-64
2021/11/24 07:31:12;;;;;;;12.32;9.55;;;8.70;99.90;;;;;;5132564;27;20035;-62
2021/11/24 07:33:37;;;;;;;15.30;8.50;;;8.70;99.90;;;;;;5131350;27;20251;-77
2021/11/24 07:36:03;;;;;;;17.13;9.18;;;8.70;99.90;;;;;;5071307;28;20470;-68
2021/11/24 07:38:29;;;;;;;11.48;8.95;;;8.70;99.90;;;;;;5105038;27;20412;-73
2021/11/24 07:40:54;;;;;;;14.15;8.63;;;8.60;99.90;;;;;;5093670;27;20028;-69
2021/11/24 07:43:20;;;;;;;16.05;9.55;;;8.70;99.90;;;;;;5104182;27;20031;-73
2021/11/24 07:45:46;;;;;;;13.95;8.85;;;8.70;99.90;;;;;;5124083;27;20551;-67
2021/11/24 07:48:12;;;;;;;14.73;9.32;;;8.80;99.90;;;;;;5090994;27;20085;-70
2021/11/24 07:50:38;;;;;;;10.50;8.30;;;8.80;99.90;;;;;;5098085;28;20068;-72
2021/11/24 07:53:03;;;;;;;13.07;9.40;;;8.90;99.90;;;;;;5098784;28;20100;-65
2021/11/24 07:55:29;;;;;;;12.90;9.02;;;8.80;99.90;;;;;;5113201;27;20069;-68
2021/11/24 07:57:55;;;;;;;16.10;9.70;;;8.80;99.90;;;;;;5091524;27;20039;-74
2021/11/24 08:00:20;;;;;;;15.95;10.73;;;8.80;99.90;;;;;;5108264;27;20050;-75
2021/11/24 08:02:46;;;;;;;15.00;10.70;;;8.90;99.90;;;;;;5104675;27;20055;-76
2021/11/24 08:05:12;;;;;;;19.70;14.10;;;8.90;99.90;;;;;;5122676;27;20055;-71
2021/11/24 08:07:38;;;;;;;19.30;12.73;;;8.80;99.90;;;;;;5103364;27;20076;-75
2021/11/24 08:10:05;;;;;;;15.90;11.88;;;8.80;99.90;;;;;;5088662;27;20020;-73
2021/11/24 08:12:31;;;;;;;19.40;12.13;;;8.90;99.90;;;;;;5118094;27;20040;-78
2021/11/24 08:14:57;;;;;;;18.67;11.65;;;8.90;99.90;;;;;;5132224;27;20069;-64
2021/11/24 08:17:22;;;;;;;17.52;11.93;;;8.90;99.90;;;;;;5107311;27;20048;-71
2021/11/24 08:19:49;;;;;;;18.63;12.07;;;8.90;99.90;;;;;;5092914;28;20027;-76
2021/11/24 08:22:14;;;;;;;21.60;13.35;;;9.00;99.90;;;;;;5121106;27;20406;-67
2021/11/24 08:24:40;;;;;;;18.02;12.05;;;9.00;99.90;;;;;;5102688;27;20106;-68
2021/11/24 08:27:06;;;;;;;19.60;12.38;;;9.10;99.90;;;;;;5128704;27;20048;-68
2021/11/24 08:29:31;;;;;;;19.60;13.20;;;9.10;99.90;;;;;;5093337;28;20118;-70
2021/11/24 08:31:57;;;;;;;21.92;14.18;;;9.20;99.90;;;;;;5137272;27;20020;-73
2021/11/24 08:34:24;;;;;;;18.63;13.00;;;9.20;99.90;;;;;;5096904;28;20050;-76
2021/11/24 08:36:51;;;;;;;20.58;14.07;;;9.30;99.90;;;;;;5116913;27;20031;-81
2021/11/24 08:39:17;;;;;;;22.90;14.80;;;9.20;99.90;;;;;;5107190;28;20030;-80
2021/11/24 08:41:44;;;;;;;24.65;14.85;;;9.20;99.90;;;;;;5100754;27;20078;-84
2021/11/24 08:44:11;;;;;;;18.20;13.20;;;9.20;99.90;;;;;;5087299;27;20768;-71
2021/11/24 08:46:37;;;;;;;21.45;13.70;;;9.20;99.90;;;;;;5099593;28;20035;-81
2021/11/24 08:49:05;;;;;;;17.92;14.07;;;9.30;99.90;;;;;;5087137;27;20031;-74
2021/11/24 08:51:32;;;;;;;22.38;13.77;;;9.40;99.90;;;;;;5092436;27;20056;-76
2021/11/24 08:53:59;;;;;;;21.58;13.77;;;9.40;99.90;;;;;;5124238;27;20076;-81
2021/11/24 08:56:25;;;;;;;22.58;14.65;;;9.40;99.90;;;;;;5104612;28;20028;-66
2021/11/24 08:58:50;;;;;;;22.05;13.70;;;9.50;99.90;;;;;;5102108;27;20979;-74
2021/11/24 09:01:16;;;;;;;19.20;13.07;;;9.50;99.90;;;;;;5120898;27;20020;-69
2021/11/24 09:03:42;;;;;;;18.83;13.88;;;9.60;99.90;;;;;;5121662;27;20024;-72
2021/11/24 09:06:07;;;;;;;20.33;13.70;;;9.70;99.90;;;;;;5124630;27;20051;-74
2021/11/24 09:08:33;;;;;;;19.48;12.32;;;9.70;99.90;;;;;;5090660;28;20020;-75
2021/11/24 09:10:59;;;;;;;19.17;12.90;;;9.70;99.90;;;;;;5105214;27;20034;-68
2021/11/24 09:13:25;;;;;;;19.92;11.35;;;9.70;99.90;;;;;;5104721;28;20062;-68
2021/11/24 09:15:51;;;;;;;16.52;10.90;;;9.70;99.90;;;;;;5110915;27;20027;-78
2021/11/24 09:18:17;;;;;;;16.20;11.55;;;9.70;99.90;;;;;;5138537;27;20031;-81
2021/11/24 09:20:43;;;;;;;17.08;10.85;;;9.80;99.90;;;;;;5143980;27;20026;-83
2021/11/24 09:23:10;;;;;;;16.15;11.93;;;9.80;99.90;;;;;;5144945;27;20026;-80
2021/11/24 09:25:38;;;;;;;15.20;10.27;;;10.20;99.90;;;;;;5112560;27;20077;-75
2021/11/24 09:28:11;;;;;;;14.70;10.25;;;10.30;99.90;;;;;;5098064;28;20127;-79
2021/11/24 09:30:37;;;;;;;14.88;10.20;;;10.50;99.90;;;;;;5129119;27;20046;-84
2021/11/24 09:33:03;;;;;;;14.32;10.55;;;10.70;99.90;;;;;;5124355;27;20023;-75
2021/11/24 09:35:29;;;;;;;13.50;9.77;;;10.80;99.90;;;;;;5145702;27;20020;-81
2021/11/24 09:37:55;;;;;;;12.90;10.25;;;10.80;99.90;;;;;;5135715;27;20625;-78
2021/11/24 09:40:20;;;;;;;17.52;9.52;;;10.70;99.90;;;;;;5121902;28;20011;-79
2021/11/24 09:42:47;;;;;;;13.82;9.75;;;10.60;99.90;;;;;;5139353;27;20039;-83
2021/11/24 09:45:16;;;;;;;12.93;9.80;;;10.60;99.90;;;;;;5120753;27;20015;-79
2021/11/24 09:47:47;;;;;;;14.20;10.38;;;10.60;99.90;;;;;;5122016;27;20027;-78
2021/11/24 09:50:14;;;;;;;16.17;10.65;;;10.60;99.90;;;;;;5108261;27;20024;-79
2021/11/24 09:52:43;;;;;;;16.10;10.02;;;10.60;99.90;;;;;;5137921;27;20069;-75
2021/11/24 09:55:09;;;;;;;15.80;10.02;;;10.60;99.90;;;;;;5117056;28;20020;-80
2021/11/24 09:57:35;;;;;;;15.65;9.05;;;10.60;99.90;;;;;;5135512;27;20067;-81
2021/11/24 10:00:02;;;;;;;16.55;9.60;;;10.60;99.90;;;;;;5117012;28;20027;-80
2021/11/24 10:02:28;;;;;;;12.38;8.65;;;10.70;99.90;;;;;;5102270;27;20066;-76
2021/11/24 10:04:54;;;;;;;14.90;8.55;;;10.60;99.90;;;;;;5103359;27;20037;-70
2021/11/24 10:07:20;;;;;;;13.10;8.48;;;10.50;99.90;;;;;;5127544;27;20465;-70
2021/11/24 10:09:47;;;;;;;11.20;8.68;;;10.50;99.90;;;;;;5118380;27;20019;-71
2021/11/24 10:12:13;;;;;;;9.85;7.20;;;10.50;99.90;;;;;;5092097;28;20118;-76
2021/11/24 10:14:40;;;;;;;11.73;8.05;;;10.50;99.90;;;;;;5095751;28;20106;-74
2021/11/24 10:17:15;;;;;;;14.20;8.52;;;10.50;99.90;;;;;;5109207;27;20030;-69
2021/11/24 10:20:01;;;;;;;11.65;7.88;;;10.50;99.90;;;;;;5096030;28;20420;-75
2021/11/24 10:22:29;;;;;;;12.68;7.40;;;10.60;99.90;;;;;;5085392;28;20508;-70
2021/11/24 10:25:14;;;;;;;11.45;7.45;;;10.60;99.90;;;;;;5105317;28;20365;-75
2021/11/24 10:27:48;;;;;;;8.25;6.85;;;10.70;99.90;;;;;;5109020;28;20492;-73
2021/11/24 10:30:26;;;;;;;9.18;7.13;;;10.80;99.90;;;;;;5097010;28;20470;-73
2021/11/24 10:32:52;;;;;;;9.85;6.80;;;10.80;99.90;;;;;;5100486;28;20072;-72
2021/11/24 10:35:26;;;;;;;10.35;7.07;;;10.90;99.90;;;;;;5090284;28;20019;-71
2021/11/24 10:38:15;;;;;;;9.93;6.22;;;10.80;99.90;;;;;;5123940;28;20401;-71
2021/11/24 10:40:46;;;;;;;12.45;6.35;;;10.90;99.90;;;;;;5092420;28;20046;-73
2021/11/24 10:43:17;;;;;;;8.10;6.32;;;11.00;99.90;;;;;;5106448;28;20084;-74
2021/11/24 10:45:56;;;;;;;10.35;7.18;;;11.10;99.90;;;;;;5117562;28;20035;-82
2021/11/24 10:48:30;;;;;;;9.18;6.55;;;11.20;99.90;;;;;;5107986;28;20027;-81
2021/11/24 10:50:59;;;;;;;8.90;6.17;;;11.20;99.90;;;;;;5109137;28;20082;-79
2021/11/24 10:53:25;;;;;;;7.50;5.03;;;11.30;99.90;;;;;;5097668;28;20329;-84
2021/11/24 10:55:51;;;;;;;9.77;5.47;;;11.30;99.90;;;;;;5115244;28;20020;-79
2021/11/24 10:58:18;;;;;;;8.70;5.32;;;11.40;99.90;;;;;;5115793;28;20447;-76
2021/11/24 11:00:47;;;;;;;7.78;5.70;;;11.40;99.90;;;;;;5112785;28;20040;-74
2021/11/24 11:03:13;;;;;;;8.50;6.38;;;11.40;99.90;;;;;;5118353;28;20051;-77
2021/11/24 11:05:41;;;;;;;6.38;5.05;;;11.50;99.90;;;;;;5121000;28;20019;-70
2021/11/24 11:08:09;;;;;;;8.60;5.68;;;11.60;99.90;;;;;;5141575;28;20063;-77
2021/11/24 11:10:43;;;;;;;9.82;6.03;;;11.70;99.90;;;;;;5110614;28;20023;-76
2021/11/24 11:13:14;;;;;;;9.98;5.45;;;11.70;99.90;;;;;;5115157;28;20020;-70
2021/11/24 11:15:47;;;;;;;9.02;6.15;;;11.60;99.90;;;;;;5123127;28;20008;-67
2021/11/24 11:18:16;;;;;;;8.75;6.60;;;11.60;99.90;;;;;;5106518;27;20088;-72
2021/11/24 11:20:56;;;;;;;8.82;6.97;;;11.50;99.90;;;;;;5105510;28;20020;-67
2021/11/24 11:23:48;;;;;;;7.30;6.25;;;11.50;99.90;;;;;;5106710;27;20067;-66
2021/11/24 11:26:21;;;;;;;11.05;6.25;;;11.50;99.90;;;;;;5117360;27;20505;-65
2021/11/24 11:28:51;;;;;;;10.48;5.75;;;11.40;99.90;;;;;;5104695;28;20079;-76
2021/11/24 11:31:19;;;;;;;7.18;5.47;;;11.30;99.90;;;;;;5092146;28;20111;-71
2021/11/24 11:33:50;;;;;;;12.10;5.50;;;11.30;99.90;;;;;;5103388;27;20106;-71
2021/11/24 11:36:16;;;;;;;10.73;6.90;;;11.40;99.90;;;;;;5123560;27;20023;-72
2021/11/24 11:38:45;;;;;;;7.65;5.20;;;11.40;99.90;;;;;;5113405;27;20126;-69
2021/11/24 11:41:11;;;;;;;5.88;5.00;;;11.50;99.90;;;;;;5104178;27;20031;-69
2021/11/24 11:43:38;;;;;;;6.95;5.05;;;11.50;99.90;;;;;;5117431;27;20096;-69
2021/11/24 11:46:27;;;;;;;4.97;4.28;;;11.50;99.90;;;;;;5097485;27;20023;-69
2021/11/24 11:48:53;;;;;;;6.53;4.32;;;11.60;99.90;;;;;;5103875;27;20380;-76
2021/11/24 11:51:29;;;;;;;6.63;5.00;;;11.60;99.90;;;;;;5103779;27;20022;-68
2021/11/24 11:53:55;;;;;;;5.43;4.40;;;11.70;99.90;;;;;;5089427;27;20491;-74
2021/11/24 11:56:23;;;;;;;8.65;4.80;;;11.70;99.90;;;;;;5118336;27;20030;-70
2021/11/24 11:59:09;;;;;;;4.90;4.43;;;11.70;99.90;;;;;;5101625;28;20030;-73
2021/11/24 12:01:40;;;;;;;6.03;4.43;;;11.70;99.90;;;;;;5126260;27;20058;-66
2021/11/24 12:04:12;;;;;;;6.25;3.97;;;11.70;99.90;;;;;;5099136;27;20055;-74
2021/11/24 12:06:47;;;;;;;7.53;3.80;;;11.80;99.90;;;;;;5129463;27;20096;-72
2021/11/24 12:09:17;;;;;;;5.47;4.35;;;11.80;99.90;;;;;;5119649;27;20027;-72
2021/11/24 12:12:04;;;;;;;5.30;3.78;;;11.90;99.90;;;;;;5113690;28;20026;-78
2021/11/24 12:14:55;;;;;;;9.20;4.15;;;11.90;99.90;;;;;;5128278;27;20393;-71
2021/11/24 12:17:30;;;;;;;7.78;4.07;;;11.90;99.90;;;;;;5136309;27;20043;-69
2021/11/24 12:20:11;;;;;;;5.38;4.13;;;11.80;99.90;;;;;;5128780;27;20379;-73
2021/11/24 12:22:53;;;;;;;7.25;4.45;;;11.80;99.90;;;;;;5129515;27;20054;-75
2021/11/24 12:27:53;;;;;;;5.18;4.53;;;11.70;99.90;;;;;;5143170;27;20031;-78
2021/11/24 12:30:34;;;;;;;6.63;5.60;;;11.70;99.90;;;;;;5133666;27;20076;-76
2021/11/24 12:33:03;;;;;;;5.38;4.43;;;11.70;99.90;;;;;;5125463;27;20023;-76
2021/11/24 12:35:29;;;;;;;7.35;4.35;;;11.70;99.90;;;;;;5117774;28;20370;-80
2021/11/24 12:37:59;;;;;;;6.15;4.65;;;11.50;99.90;;;;;;5120846;27;20134;-79
2021/11/24 12:40:33;;;;;;;7.03;5.05;;;11.50;99.90;;;;;;5123542;27;20043;-71
2021/11/24 12:43:01;;;;;;;5.88;4.45;;;11.50;99.90;;;;;;5116268;27;20057;-75
2021/11/24 12:45:27;;;;;;;6.28;4.30;;;11.50;99.90;;;;;;5097215;27;21047;-76
2021/11/24 12:48:07;;;;;;;9.35;4.93;;;11.50;99.90;;;;;;5088175;27;20039;-78
2021/11/24 12:50:33;;;;;;;5.40;4.40;;;11.50;99.90;;;;;;5100419;27;20041;-69
2021/11/24 12:53:03;;;;;;;5.85;4.15;;;11.40;99.90;;;;;;5122728;28;20115;-75
2021/11/24 12:55:30;;;;;;;4.68;3.90;;;11.40;99.90;;;;;;5125524;27;20038;-75